MV Sea Wolf — WCW6738 — position and weather

sailwx.info

Track history (hours):
 
Tides and Currents Weather Stations Pressure Air Temp Water Temp Dewpoint Dewpoint Depression Visibility Wind Speed Wind Dir Waves Ship Positions

MV Sea Wolf

Owner: SEA WOLF MARINE TOWING & TRANSPORTATION, Bayonne, NJ. More information available from US FCC via Universal Licensing System and Coast Guard Vessel Documentation Center.

Last reported at 2015-Apr-18 14:24 UTC. Time now 2015-Apr-18 15:16 UTC.
Position N 40°26' W 073°60'.

Length 66 m; draft 10 m.

MMSI: 367002350.

Date/timePositionNaut miles runAvg speedWind from/ knotsBaromVisibWave heightAir tempDewpointWater temp
2015-Apr-18 14:24N 40°26' W 073°60'0 0.0
2015-Apr-18 13:31N 40°26' W 073°60'0 0.0
2015-Apr-18 12:32N 40°27' W 073°60'1 0.6
2015-Apr-18 11:29N 40°26' W 074°01'2 1.7
2015-Apr-18 10:33N 40°28' W 074°01'3 2.7
2015-Apr-18 09:32N 40°27' W 073°58'3 3.3
2015-Apr-18 08:33N 40°24' W 073°57'3 3.1
2015-Apr-18 07:33N 40°21' W 073°57'4 3.1
2015-Apr-18 06:14N 40°17' W 073°58'2 3.1
2015-Apr-18 05:32N 40°15' W 073°58'4 3.4
2015-Apr-18 04:20N 40°11' W 073°59'7 3.6
2015-Apr-18 02:25N 40°04' W 074°01'7 3.7
2015-Apr-18 00:34N 39°57' W 074°02'4 4.0
2015-Apr-17 23:33N 39°53' W 074°03'4 4.3
2015-Apr-17 22:34N 39°49' W 074°03'5 4.7
2015-Apr-17 21:34N 39°45' W 074°04'5 5.4
2015-Apr-17 20:34N 39°40' W 074°07'5 5.4
2015-Apr-17 19:33N 39°35' W 074°10'50 5.6
2015-Apr-17 10:30N 38°56' W 074°52'1 1.0
2015-Apr-17 09:20N 38°57' W 074°52'1 1.8
2015-Apr-17 08:33N 38°57' W 074°54'0 0.0
2015-Apr-17 07:33N 38°57' W 074°54'0 0.0
2015-Apr-17 06:33N 38°57' W 074°54'0 0.0
2015-Apr-17 05:30N 38°57' W 074°54'0 0.0
2015-Apr-17 04:34N 38°57' W 074°54'0 0.0
2015-Apr-17 03:33N 38°57' W 074°54'0 0.0
2015-Apr-17 02:33N 38°57' W 074°54'0 0.0
2015-Apr-17 01:27N 38°57' W 074°54'0 0.0
2015-Apr-17 00:18N 38°57' W 074°54'0 0.0
2015-Apr-16 23:34N 38°57' W 074°54'0 0.0
2015-Apr-16 22:33N 38°57' W 074°54'0 0.0
2015-Apr-16 21:33N 38°57' W 074°54'0 0.0
2015-Apr-16 20:33N 38°57' W 074°54'1 1.2
2015-Apr-16 19:33N 38°57' W 074°53'0 0.0
2015-Apr-16 18:33N 38°57' W 074°53'0 0.0
2015-Apr-16 17:34N 38°57' W 074°53'0 0.0
2015-Apr-16 16:34N 38°57' W 074°53'0 0.0
2015-Apr-16 15:32N 38°57' W 074°53'0 0.0
2015-Apr-16 14:32N 38°57' W 074°53'0 0.0
2015-Apr-16 13:24N 38°57' W 074°53'0 0.0
2015-Apr-16 11:09N 38°57' W 074°53'1 1.9
2015-Apr-16 10:34N 38°57' W 074°54'0 0.0
2015-Apr-16 09:33N 38°57' W 074°54'0 0.0
2015-Apr-16 08:33N 38°57' W 074°54'0 0.0
2015-Apr-16 07:33N 38°57' W 074°54'0 0.0
2015-Apr-16 06:33N 38°57' W 074°54'0 0.0
2015-Apr-16 05:33N 38°57' W 074°54'0 0.0
2015-Apr-16 04:33N 38°57' W 074°54'0 0.0
2015-Apr-16 03:33N 38°57' W 074°54'0 0.0
2015-Apr-16 02:33N 38°57' W 074°54'0 0.0
2015-Apr-16 01:33N 38°57' W 074°54'0 0.0
2015-Apr-16 00:33N 38°57' W 074°54'0 0.0
2015-Apr-15 23:33N 38°57' W 074°54'0 0.0
2015-Apr-15 22:33N 38°57' W 074°54'0 0.0
2015-Apr-15 21:33N 38°57' W 074°54'1 0.8
2015-Apr-15 20:33N 38°57' W 074°53'0 0.4
2015-Apr-15 19:32N 38°57' W 074°53'0 0.0
2015-Apr-15 18:27N 38°57' W 074°53'0 0.0
2015-Apr-15 17:29N 38°57' W 074°53'0 0.0
2015-Apr-15 16:27N 38°57' W 074°53'0 0.0
2015-Apr-15 15:33N 38°57' W 074°53'0 0.0
2015-Apr-15 14:33N 38°57' W 074°53'0 0.0
2015-Apr-15 13:33N 38°57' W 074°53'1 0.5
2015-Apr-15 12:29N 38°57' W 074°52'0 0.4
2015-Apr-15 11:33N 38°57' W 074°52'1 1.4
2015-Apr-15 10:33N 38°57' W 074°54'0 0.0
2015-Apr-15 09:33N 38°57' W 074°54'0 0.0
2015-Apr-15 08:33N 38°57' W 074°54'0 0.0
2015-Apr-15 07:33N 38°57' W 074°54'0 0.0
2015-Apr-15 06:33N 38°57' W 074°54'0 0.0
2015-Apr-15 05:33N 38°57' W 074°54'0 0.0
2015-Apr-15 04:33N 38°57' W 074°54'0 0.0
2015-Apr-15 03:33N 38°57' W 074°54'0 0.0
2015-Apr-15 02:32N 38°57' W 074°54'0 0.0
2015-Apr-15 01:33N 38°57' W 074°54'0 0.0
2015-Apr-15 00:33N 38°57' W 074°54'0 0.0
2015-Apr-14 23:33N 38°57' W 074°54'0 0.0
2015-Apr-14 22:33N 38°57' W 074°54'0 0.0
2015-Apr-14 21:33N 38°57' W 074°54'1 1.1
2015-Apr-14 20:33N 38°57' W 074°53'0 0.0
2015-Apr-14 19:32N 38°57' W 074°53'0 0.0
2015-Apr-14 18:27N 38°57' W 074°53'0 0.0
2015-Apr-14 17:33N 38°57' W 074°53'0 0.0
2015-Apr-14 16:33N 38°57' W 074°53'0 0.0
2015-Apr-14 15:32N 38°57' W 074°53'1 0.7
2015-Apr-14 14:34N 38°57' W 074°54'1 0.7
2015-Apr-14 13:30N 38°57' W 074°53'0 0.2
2015-Apr-14 12:14N 38°57' W 074°52'0 0.2
2015-Apr-14 11:33N 38°57' W 074°52'1 1.4
2015-Apr-14 10:32N 38°57' W 074°54'0 0.0
2015-Apr-14 09:33N 38°57' W 074°54'0 0.0
2015-Apr-14 08:33N 38°57' W 074°54'0 0.0
2015-Apr-14 07:31N 38°57' W 074°54'0 0.0
2015-Apr-14 06:33N 38°57' W 074°54'0 0.0
2015-Apr-14 05:33N 38°57' W 074°54'0 0.0
2015-Apr-14 04:33N 38°57' W 074°54'0 0.0
2015-Apr-14 03:32N 38°57' W 074°54'0 0.0
2015-Apr-14 02:33N 38°57' W 074°54'0 0.0
2015-Apr-14 01:33N 38°57' W 074°54'0 0.0
2015-Apr-14 00:33N 38°57' W 074°54'0 0.0
2015-Apr-13 23:33N 38°57' W 074°54'2 1.9
2015-Apr-13 22:33N 38°56' W 074°52'16 4.7
2015-Apr-13 19:06N 39°09' W 074°40'3 5.3
2015-Apr-13 18:33N 39°12' W 074°38'1 0.9
2015-Apr-13 17:33N 39°13' W 074°37'0 0.3
2015-Apr-13 16:30N 39°13' W 074°37'0 0.1
2015-Apr-13 15:31N 39°13' W 074°37'0 0.3
2015-Apr-13 14:14N 39°13' W 074°37'  
Track history (hours):
 
Tides and Currents Weather Stations Pressure Air Temp Water Temp Dewpoint Dewpoint Depression Visibility Wind Speed Wind Dir Waves Ship Positions

MV Sea Wolf

Owner: SEA WOLF MARINE TOWING & TRANSPORTATION, Bayonne, NJ. More information available from US FCC via Universal Licensing System and Coast Guard Vessel Documentation Center.

Last reported at 2015-Apr-18 14:24 UTC. Time now 2015-Apr-18 15:16 UTC.
Position N 40°26' W 073°60'.

Length 66 m; draft 10 m.

MMSI: 367002350.

Date/timePositionNaut miles runAvg speedWind from/ knotsBaromVisibWave heightAir tempDewpointWater temp
2015-Apr-18 14:24N 40°26' W 073°60'0 0.0
2015-Apr-18 13:31N 40°26' W 073°60'0 0.0
2015-Apr-18 12:32N 40°27' W 073°60'1 0.6
2015-Apr-18 11:29N 40°26' W 074°01'2 1.7
2015-Apr-18 10:33N 40°28' W 074°01'3 2.7
2015-Apr-18 09:32N 40°27' W 073°58'3 3.3
2015-Apr-18 08:33N 40°24' W 073°57'3 3.1
2015-Apr-18 07:33N 40°21' W 073°57'4 3.1
2015-Apr-18 06:14N 40°17' W 073°58'2 3.1
2015-Apr-18 05:32N 40°15' W 073°58'4 3.4
2015-Apr-18 04:20N 40°11' W 073°59'7 3.6
2015-Apr-18 02:25N 40°04' W 074°01'7 3.7
2015-Apr-18 00:34N 39°57' W 074°02'4 4.0
2015-Apr-17 23:33N 39°53' W 074°03'4 4.3
2015-Apr-17 22:34N 39°49' W 074°03'5 4.7
2015-Apr-17 21:34N 39°45' W 074°04'5 5.4
2015-Apr-17 20:34N 39°40' W 074°07'5 5.4
2015-Apr-17 19:33N 39°35' W 074°10'50 5.6
2015-Apr-17 10:30N 38°56' W 074°52'1 1.0
2015-Apr-17 09:20N 38°57' W 074°52'1 1.8
2015-Apr-17 08:33N 38°57' W 074°54'0 0.0
2015-Apr-17 07:33N 38°57' W 074°54'0 0.0
2015-Apr-17 06:33N 38°57' W 074°54'0 0.0
2015-Apr-17 05:30N 38°57' W 074°54'0 0.0
2015-Apr-17 04:34N 38°57' W 074°54'0 0.0
2015-Apr-17 03:33N 38°57' W 074°54'0 0.0
2015-Apr-17 02:33N 38°57' W 074°54'0 0.0
2015-Apr-17 01:27N 38°57' W 074°54'0 0.0
2015-Apr-17 00:18N 38°57' W 074°54'0 0.0
2015-Apr-16 23:34N 38°57' W 074°54'0 0.0
2015-Apr-16 22:33N 38°57' W 074°54'0 0.0
2015-Apr-16 21:33N 38°57' W 074°54'0 0.0
2015-Apr-16 20:33N 38°57' W 074°54'1 1.2
2015-Apr-16 19:33N 38°57' W 074°53'0 0.0
2015-Apr-16 18:33N 38°57' W 074°53'0 0.0
2015-Apr-16 17:34N 38°57' W 074°53'0 0.0
2015-Apr-16 16:34N 38°57' W 074°53'0 0.0
2015-Apr-16 15:32N 38°57' W 074°53'0 0.0
2015-Apr-16 14:32N 38°57' W 074°53'0 0.0
2015-Apr-16 13:24N 38°57' W 074°53'0 0.0
2015-Apr-16 11:09N 38°57' W 074°53'1 1.9
2015-Apr-16 10:34N 38°57' W 074°54'0 0.0
2015-Apr-16 09:33N 38°57' W 074°54'0 0.0
2015-Apr-16 08:33N 38°57' W 074°54'0 0.0
2015-Apr-16 07:33N 38°57' W 074°54'0 0.0
2015-Apr-16 06:33N 38°57' W 074°54'0 0.0
2015-Apr-16 05:33N 38°57' W 074°54'0 0.0
2015-Apr-16 04:33N 38°57' W 074°54'0 0.0
2015-Apr-16 03:33N 38°57' W 074°54'0 0.0
2015-Apr-16 02:33N 38°57' W 074°54'0 0.0
2015-Apr-16 01:33N 38°57' W 074°54'0 0.0
2015-Apr-16 00:33N 38°57' W 074°54'0 0.0
2015-Apr-15 23:33N 38°57' W 074°54'0 0.0
2015-Apr-15 22:33N 38°57' W 074°54'0 0.0
2015-Apr-15 21:33N 38°57' W 074°54'1 0.8
2015-Apr-15 20:33N 38°57' W 074°53'0 0.4
2015-Apr-15 19:32N 38°57' W 074°53'0 0.0
2015-Apr-15 18:27N 38°57' W 074°53'0 0.0
2015-Apr-15 17:29N 38°57' W 074°53'0 0.0
2015-Apr-15 16:27N 38°57' W 074°53'0 0.0
2015-Apr-15 15:33N 38°57' W 074°53'0 0.0
2015-Apr-15 14:33N 38°57' W 074°53'0 0.0
2015-Apr-15 13:33N 38°57' W 074°53'1 0.5
2015-Apr-15 12:29N 38°57' W 074°52'0 0.4
2015-Apr-15 11:33N 38°57' W 074°52'1 1.4
2015-Apr-15 10:33N 38°57' W 074°54'0 0.0
2015-Apr-15 09:33N 38°57' W 074°54'0 0.0
2015-Apr-15 08:33N 38°57' W 074°54'0 0.0
2015-Apr-15 07:33N 38°57' W 074°54'0 0.0
2015-Apr-15 06:33N 38°57' W 074°54'0 0.0
2015-Apr-15 05:33N 38°57' W 074°54'0 0.0
2015-Apr-15 04:33N 38°57' W 074°54'0 0.0
2015-Apr-15 03:33N 38°57' W 074°54'0 0.0
2015-Apr-15 02:32N 38°57' W 074°54'0 0.0
2015-Apr-15 01:33N 38°57' W 074°54'0 0.0
2015-Apr-15 00:33N 38°57' W 074°54'0 0.0
2015-Apr-14 23:33N 38°57' W 074°54'0 0.0
2015-Apr-14 22:33N 38°57' W 074°54'0 0.0
2015-Apr-14 21:33N 38°57' W 074°54'1 1.1
2015-Apr-14 20:33N 38°57' W 074°53'0 0.0
2015-Apr-14 19:32N 38°57' W 074°53'0 0.0
2015-Apr-14 18:27N 38°57' W 074°53'0 0.0
2015-Apr-14 17:33N 38°57' W 074°53'0 0.0
2015-Apr-14 16:33N 38°57' W 074°53'0 0.0
2015-Apr-14 15:32N 38°57' W 074°53'1 0.7
2015-Apr-14 14:34N 38°57' W 074°54'1 0.7
2015-Apr-14 13:30N 38°57' W 074°53'0 0.2
2015-Apr-14 12:14N 38°57' W 074°52'0 0.2
2015-Apr-14 11:33N 38°57' W 074°52'1 1.4
2015-Apr-14 10:32N 38°57' W 074°54'0 0.0
2015-Apr-14 09:33N 38°57' W 074°54'0 0.0
2015-Apr-14 08:33N 38°57' W 074°54'0 0.0
2015-Apr-14 07:31N 38°57' W 074°54'0 0.0
2015-Apr-14 06:33N 38°57' W 074°54'0 0.0
2015-Apr-14 05:33N 38°57' W 074°54'0 0.0
2015-Apr-14 04:33N 38°57' W 074°54'0 0.0
2015-Apr-14 03:32N 38°57' W 074°54'0 0.0
2015-Apr-14 02:33N 38°57' W 074°54'0 0.0
2015-Apr-14 01:33N 38°57' W 074°54'0 0.0
2015-Apr-14 00:33N 38°57' W 074°54'0 0.0
2015-Apr-13 23:33N 38°57' W 074°54'2 1.9
2015-Apr-13 22:33N 38°56' W 074°52'16 4.7
2015-Apr-13 19:06N 39°09' W 074°40'3 5.3
2015-Apr-13 18:33N 39°12' W 074°38'1 0.9
2015-Apr-13 17:33N 39°13' W 074°37'0 0.3
2015-Apr-13 16:30N 39°13' W 074°37'0 0.1
2015-Apr-13 15:31N 39°13' W 074°37'0 0.3
2015-Apr-13 14:14N 39°13' W 074°37'  

Dump ship's entire track history